Time;durP1;ratioP1;P1;durP2;ratioP2;P2;SDS_P1;SDS_P2;PMS_P1;PMS_P2;Temp;Humidity;BMP_temperature;BMP_pressure;BME280_temperature;BME280_humidity;BME280_pressure;Samples;Min_cycle;Max_cycle;Signal;HPM_P1;HPM_P2
2023/04/23 00:00:40;;;;;;;4.80;4.38;;;13.10;99.90;;;;;;5053515;28;20108;-51
2023/04/23 00:03:08;;;;;;;5.20;4.78;;;13.10;99.90;;;;;;5069441;28;20028;-54
2023/04/23 00:05:36;;;;;;;6.00;4.45;;;13.10;99.90;;;;;;5073436;28;20107;-49
2023/04/23 00:08:02;;;;;;;6.50;5.00;;;13.10;99.90;;;;;;5073562;28;20039;-53
2023/04/23 00:10:28;;;;;;;5.88;5.03;;;13.10;99.90;;;;;;5072429;28;20539;-50
2023/04/23 00:12:54;;;;;;;6.63;5.15;;;13.10;99.90;;;;;;5072824;28;20136;-50
2023/04/23 00:15:21;;;;;;;5.47;4.95;;;13.10;99.90;;;;;;5073185;28;20023;-48
2023/04/23 00:17:47;;;;;;;6.18;4.88;;;13.10;99.90;;;;;;5073511;28;20017;-48
2023/04/23 00:20:13;;;;;;;6.90;4.78;;;13.00;99.90;;;;;;5072410;28;20039;-51
2023/04/23 00:22:39;;;;;;;10.75;5.35;;;13.10;99.90;;;;;;5072869;28;20499;-50
2023/04/23 00:25:05;;;;;;;7.70;5.10;;;13.00;99.90;;;;;;5072999;28;20028;-53
2023/04/23 00:27:30;;;;;;;11.30;5.45;;;13.10;99.90;;;;;;5073099;28;20024;-52
2023/04/23 00:29:56;;;;;;;12.38;6.55;;;13.00;99.90;;;;;;5054944;28;20510;-50
2023/04/23 00:32:21;;;;;;;6.65;5.22;;;13.00;99.90;;;;;;5072829;28;20024;-54
2023/04/23 00:34:48;;;;;;;8.35;7.07;;;13.00;99.90;;;;;;5072474;28;20469;-53
2023/04/23 00:37:14;;;;;;;23.17;14.73;;;13.00;99.90;;;;;;5072799;28;20103;-49
2023/04/23 00:39:39;;;;;;;9.35;5.57;;;13.10;99.90;;;;;;5072628;28;20070;-53
2023/04/23 00:42:11;;;;;;;7.28;5.40;;;13.00;99.90;;;;;;5072663;28;20032;-51
2023/04/23 00:44:40;;;;;;;8.82;5.90;;;12.90;99.90;;;;;;5072668;28;20024;-50
2023/04/23 00:47:07;;;;;;;6.38;5.82;;;12.90;99.90;;;;;;5072755;28;20097;-48
2023/04/23 00:49:34;;;;;;;6.68;5.72;;;12.90;99.90;;;;;;5072564;28;20052;-49
2023/04/23 00:52:00;;;;;;;9.85;5.88;;;12.90;99.90;;;;;;5072374;28;20024;-49
2023/04/23 00:54:26;;;;;;;12.52;6.28;;;12.90;99.90;;;;;;5072473;28;20066;-50
2023/04/23 00:56:52;;;;;;;11.02;7.13;;;12.90;99.90;;;;;;5072305;28;20025;-49
2023/04/23 00:59:19;;;;;;;11.23;6.72;;;12.90;99.90;;;;;;5073350;28;20073;-49
2023/04/23 01:01:45;;;;;;;10.07;6.38;;;12.90;99.90;;;;;;5072413;28;20532;-53
2023/04/23 01:04:16;;;;;;;9.07;6.82;;;12.80;99.90;;;;;;5072040;28;20158;-53
2023/04/23 01:06:42;;;;;;;9.30;6.55;;;12.80;99.90;;;;;;5054549;28;20043;-51
2023/04/23 01:09:09;;;;;;;12.48;6.78;;;12.80;99.90;;;;;;5072216;28;20495;-49
2023/04/23 01:11:38;;;;;;;9.82;7.55;;;12.80;99.90;;;;;;5072128;28;20035;-49
2023/04/23 01:14:03;;;;;;;8.10;7.18;;;12.80;99.90;;;;;;5071859;28;20027;-46
2023/04/23 01:16:29;;;;;;;11.65;7.03;;;12.80;99.90;;;;;;5072213;28;20024;-51
2023/04/23 01:18:55;;;;;;;12.25;7.70;;;12.80;99.90;;;;;;5071970;28;20395;-48
2023/04/23 01:21:22;;;;;;;8.70;7.45;;;12.80;99.90;;;;;;5072011;28;20400;-48
2023/04/23 01:23:48;;;;;;;12.25;7.85;;;12.70;99.90;;;;;;5053663;28;20408;-48
2023/04/23 01:26:13;;;;;;;8.55;7.03;;;12.70;99.90;;;;;;5071847;28;20017;-51
2023/04/23 01:28:40;;;;;;;10.52;8.32;;;12.70;99.90;;;;;;5071866;28;20095;-51
2023/04/23 01:31:06;;;;;;;8.25;7.13;;;12.70;99.90;;;;;;5071805;28;20434;-52
2023/04/23 01:33:33;;;;;;;9.35;7.63;;;12.70;99.90;;;;;;5071769;28;20021;-47
2023/04/23 01:35:59;;;;;;;14.70;7.68;;;12.70;99.90;;;;;;5072208;28;20025;-53
2023/04/23 01:38:29;;;;;;;12.80;7.78;;;12.80;99.90;;;;;;5071880;28;20515;-54
2023/04/23 01:40:55;;;;;;;10.90;7.32;;;12.70;99.90;;;;;;5071764;28;20021;-52
2023/04/23 01:43:21;;;;;;;17.02;7.45;;;12.70;99.90;;;;;;5070906;28;20040;-52
2023/04/23 01:45:47;;;;;;;14.48;7.82;;;12.70;99.90;;;;;;5070551;28;20040;-49
2023/04/23 01:48:13;;;;;;;14.18;7.93;;;12.70;99.90;;;;;;5071026;28;20024;-51
2023/04/23 01:50:40;;;;;;;8.63;7.72;;;12.70;99.90;;;;;;5070577;28;20036;-51
2023/04/23 01:53:05;;;;;;;11.48;7.97;;;12.70;99.90;;;;;;5071062;28;20020;-50
2023/04/23 01:55:32;;;;;;;9.98;7.45;;;12.70;99.90;;;;;;5070698;28;20506;-53
2023/04/23 01:57:58;;;;;;;11.55;7.70;;;12.70;99.90;;;;;;5070482;28;20492;-48
2023/04/23 02:00:23;;;;;;;12.10;7.82;;;12.70;99.90;;;;;;5070709;28;20025;-49
2023/04/23 02:02:52;;;;;;;8.55;7.63;;;12.70;99.90;;;;;;5070730;28;20056;-51
2023/04/23 02:05:18;;;;;;;8.77;7.30;;;12.70;99.90;;;;;;5070817;28;20025;-52
2023/04/23 02:07:49;;;;;;;9.20;7.60;;;12.70;99.90;;;;;;5070735;28;20033;-48
2023/04/23 02:10:15;;;;;;;10.00;7.40;;;12.70;99.90;;;;;;5070630;28;20063;-50
2023/04/23 02:12:41;;;;;;;9.82;7.57;;;12.70;99.90;;;;;;5070544;28;20028;-54
2023/04/23 02:15:08;;;;;;;12.93;7.60;;;12.60;99.90;;;;;;5070472;28;20027;-51
2023/04/23 02:17:34;;;;;;;10.32;7.43;;;12.60;99.90;;;;;;5070632;28;20424;-50
2023/04/23 02:20:00;;;;;;;9.25;7.57;;;12.60;99.90;;;;;;5070342;28;20032;-52
2023/04/23 02:22:27;;;;;;;9.88;7.55;;;12.70;99.90;;;;;;5070565;28;20040;-55
2023/04/23 02:24:53;;;;;;;8.88;7.03;;;12.60;99.90;;;;;;5070341;28;20426;-50
2023/04/23 02:27:19;;;;;;;11.30;7.50;;;12.70;99.90;;;;;;5070436;28;20181;-54
2023/04/23 02:29:46;;;;;;;9.38;7.35;;;12.60;99.90;;;;;;5070227;28;20029;-54
2023/04/23 02:32:12;;;;;;;9.77;7.18;;;12.60;99.90;;;;;;5070173;28;20040;-53
2023/04/23 02:34:37;;;;;;;9.10;7.55;;;12.60;99.90;;;;;;5071187;28;20021;-53
2023/04/23 02:37:04;;;;;;;13.27;7.43;;;12.60;99.90;;;;;;5073936;28;20032;-54
2023/04/23 02:39:30;;;;;;;8.73;7.60;;;12.60;99.90;;;;;;5073691;28;20402;-53
2023/04/23 02:41:57;;;;;;;9.03;7.90;;;12.60;99.90;;;;;;5017555;28;1098646;-53
2023/04/23 02:44:23;;;;;;;9.90;7.57;;;12.60;99.90;;;;;;5074888;28;20388;-51
2023/04/23 02:46:48;;;;;;;10.15;7.25;;;12.60;99.90;;;;;;5075189;28;20166;-51
2023/04/23 02:49:14;;;;;;;7.60;6.88;;;12.60;99.90;;;;;;5075120;28;20239;-53
2023/04/23 02:51:40;;;;;;;8.05;7.18;;;12.50;99.90;;;;;;5074755;28;20054;-52
2023/04/23 02:54:06;;;;;;;8.63;7.15;;;12.60;99.90;;;;;;5074556;28;20036;-50
2023/04/23 02:56:32;;;;;;;11.38;7.25;;;12.50;99.90;;;;;;5074388;28;20377;-51
2023/04/23 02:58:57;;;;;;;7.55;6.50;;;12.50;99.90;;;;;;5074758;28;20059;-54
2023/04/23 03:01:23;;;;;;;8.38;6.93;;;12.60;99.90;;;;;;5074656;28;20540;-53
2023/04/23 03:03:48;;;;;;;8.27;7.07;;;12.50;99.90;;;;;;5074619;28;20104;-53
2023/04/23 03:06:14;;;;;;;10.55;6.63;;;12.50;99.90;;;;;;5074458;28;20031;-51
2023/04/23 03:08:40;;;;;;;8.52;7.72;;;12.50;99.90;;;;;;5074633;28;20033;-51
2023/04/23 03:11:05;;;;;;;8.10;6.93;;;12.50;99.90;;;;;;5056390;28;20031;-55
2023/04/23 03:13:31;;;;;;;9.00;6.65;;;12.50;99.90;;;;;;5074313;28;20036;-53
2023/04/23 03:15:56;;;;;;;7.82;7.03;;;12.50;99.90;;;;;;5074176;28;20124;-48
2023/04/23 03:18:22;;;;;;;9.13;7.05;;;12.50;99.90;;;;;;5074500;28;20024;-52
2023/04/23 03:20:47;;;;;;;7.43;6.72;;;12.50;99.90;;;;;;5074255;28;20056;-48
2023/04/23 03:23:13;;;;;;;8.68;7.68;;;12.50;99.90;;;;;;5074307;28;20024;-52
2023/04/23 03:25:38;;;;;;;8.57;7.18;;;12.50;99.90;;;;;;5074262;28;20035;-51
2023/04/23 03:28:04;;;;;;;8.13;7.18;;;12.50;99.90;;;;;;5074193;28;20041;-52
2023/04/23 03:30:30;;;;;;;10.38;7.07;;;12.50;99.90;;;;;;5073745;28;20391;-49
2023/04/23 03:32:56;;;;;;;8.43;6.47;;;12.50;99.90;;;;;;5073888;28;20032;-48
2023/04/23 03:35:23;;;;;;;8.00;6.60;;;12.40;99.90;;;;;;5073752;28;20392;-48
2023/04/23 03:37:48;;;;;;;7.85;7.15;;;12.40;99.90;;;;;;5074154;28;20472;-55
2023/04/23 03:40:14;;;;;;;8.88;6.47;;;12.40;99.90;;;;;;5073890;28;20025;-45
2023/04/23 03:42:40;;;;;;;9.82;7.20;;;12.40;99.90;;;;;;5073689;28;20504;-51
2023/04/23 03:45:06;;;;;;;8.88;7.00;;;12.40;99.90;;;;;;5073767;28;20028;-53
2023/04/23 03:47:31;;;;;;;7.93;7.13;;;12.40;99.90;;;;;;5073815;28;20024;-49
2023/04/23 03:49:57;;;;;;;7.57;6.80;;;12.40;99.90;;;;;;5073602;28;20443;-51
2023/04/23 03:52:22;;;;;;;7.97;7.03;;;12.40;99.90;;;;;;5055572;28;20025;-50
2023/04/23 03:54:48;;;;;;;11.48;7.60;;;12.40;99.90;;;;;;5073818;28;20064;-48
2023/04/23 03:57:14;;;;;;;8.45;7.75;;;12.40;99.90;;;;;;5073459;28;20028;-49
2023/04/23 03:59:39;;;;;;;7.93;7.13;;;12.40;99.90;;;;;;5073625;28;20031;-50
2023/04/23 04:02:05;;;;;;;8.98;8.07;;;12.40;99.90;;;;;;5073198;28;20044;-49
2023/04/23 04:04:31;;;;;;;8.32;7.15;;;12.40;99.90;;;;;;5073216;28;20025;-49
2023/04/23 04:06:59;;;;;;;9.80;7.35;;;12.40;99.90;;;;;;5073650;28;20078;-52
2023/04/23 04:09:25;;;;;;;7.63;7.03;;;12.40;99.90;;;;;;5055400;28;20035;-53
2023/04/23 04:11:51;;;;;;;8.52;7.20;;;12.30;99.90;;;;;;5073394;28;20049;-48
2023/04/23 04:14:16;;;;;;;10.10;7.43;;;12.40;99.90;;;;;;5073201;28;20020;-49
2023/04/23 04:16:42;;;;;;;8.60;7.28;;;12.40;99.90;;;;;;5073392;28;20559;-54
2023/04/23 04:19:07;;;;;;;7.22;6.53;;;12.40;99.90;;;;;;5073085;28;20032;-50
2023/04/23 04:21:33;;;;;;;8.13;7.32;;;12.40;99.90;;;;;;5073274;28;20012;-48
2023/04/23 04:24:03;;;;;;;8.23;7.15;;;12.40;99.90;;;;;;5073376;28;20039;-49
2023/04/23 04:26:31;;;;;;;9.00;7.47;;;12.40;99.90;;;;;;5073668;28;20027;-48
2023/04/23 04:29:00;;;;;;;9.50;7.88;;;12.40;99.90;;;;;;5073908;28;20464;-50
2023/04/23 04:31:29;;;;;;;7.60;6.90;;;12.40;99.90;;;;;;5073057;28;20048;-48
2023/04/23 04:33:55;;;;;;;8.25;7.47;;;12.40;99.90;;;;;;5072992;28;20032;-54
2023/04/23 04:36:23;;;;;;;7.40;6.47;;;12.40;99.90;;;;;;5054982;28;20024;-53
2023/04/23 04:38:50;;;;;;;9.05;6.63;;;12.40;99.90;;;;;;5074501;28;20030;-48
2023/04/23 04:41:16;;;;;;;7.35;6.65;;;12.40;99.90;;;;;;5075955;28;20021;-48
2023/04/23 04:43:42;;;;;;;7.35;6.68;;;12.40;99.90;;;;;;5076756;28;20467;-51
2023/04/23 04:46:10;;;;;;;7.78;7.00;;;12.40;99.90;;;;;;5076353;28;20016;-49
2023/04/23 04:48:36;;;;;;;8.38;6.35;;;12.30;99.90;;;;;;5076662;28;20418;-50
2023/04/23 04:51:02;;;;;;;6.88;6.15;;;12.30;99.90;;;;;;5073265;28;20086;-51
2023/04/23 04:53:27;;;;;;;7.95;7.15;;;12.30;99.90;;;;;;5072906;28;20071;-51
2023/04/23 04:55:53;;;;;;;9.63;7.07;;;12.40;99.90;;;;;;5072352;28;20028;-51
2023/04/23 04:58:18;;;;;;;6.93;6.32;;;12.40;99.90;;;;;;5072119;28;20032;-50
2023/04/23 05:00:45;;;;;;;8.57;7.45;;;12.40;99.90;;;;;;5072587;28;20029;-53
2023/04/23 05:03:11;;;;;;;9.80;6.57;;;12.40;99.90;;;;;;5072956;28;20024;-52
2023/04/23 05:05:36;;;;;;;7.47;6.57;;;12.50;99.90;;;;;;5072678;28;20369;-52
2023/04/23 05:08:02;;;;;;;7.53;6.60;;;12.50;99.90;;;;;;5054405;28;20020;-52
2023/04/23 05:10:28;;;;;;;6.07;5.55;;;12.50;99.90;;;;;;5072169;28;20028;-53
2023/04/23 05:12:56;;;;;;;6.68;6.15;;;12.60;99.90;;;;;;5071961;28;20078;-51
2023/04/23 05:15:22;;;;;;;6.70;6.10;;;12.80;99.90;;;;;;5071687;28;20477;-54
2023/04/23 05:17:49;;;;;;;8.00;5.93;;;13.00;99.90;;;;;;5072292;28;20284;-53
2023/04/23 05:20:14;;;;;;;6.20;5.70;;;13.20;99.90;;;;;;5054141;28;20100;-50
2023/04/23 05:22:41;;;;;;;5.93;5.32;;;13.50;99.90;;;;;;5072070;28;20532;-54
2023/04/23 05:25:07;;;;;;;5.78;5.07;;;13.80;99.90;;;;;;5071940;28;20020;-53
2023/04/23 05:27:34;;;;;;;6.45;5.10;;;13.80;99.90;;;;;;5072128;28;20036;-51
2023/04/23 05:30:01;;;;;;;9.88;5.60;;;13.80;99.90;;;;;;5071785;28;20029;-53
2023/04/23 05:32:27;;;;;;;6.47;5.22;;;13.70;99.90;;;;;;5053736;28;20020;-51
2023/04/23 05:34:52;;;;;;;5.72;5.22;;;13.60;99.90;;;;;;5053768;28;20021;-49
2023/04/23 05:37:18;;;;;;;5.28;4.78;;;13.50;99.90;;;;;;5071964;28;20024;-49
2023/04/23 05:39:44;;;;;;;6.88;5.05;;;13.50;99.90;;;;;;5071865;28;20488;-49
2023/04/23 05:42:10;;;;;;;9.25;5.18;;;13.50;99.90;;;;;;5054226;28;20036;-47
2023/04/23 05:44:35;;;;;;;17.40;4.70;;;13.90;99.90;;;;;;5071535;28;20039;-50
2023/04/23 05:47:01;;;;;;;5.32;4.78;;;14.60;99.90;;;;;;5071655;28;20029;-49
2023/04/23 05:49:26;;;;;;;4.32;4.03;;;15.40;99.90;;;;;;5071199;28;20078;-50
2023/04/23 05:51:52;;;;;;;4.10;3.70;;;16.20;99.90;;;;;;5071446;28;20028;-51
2023/04/23 05:54:18;;;;;;;3.50;3.20;;;17.00;99.90;;;;;;5071079;28;20107;-47
2023/04/23 05:56:43;;;;;;;4.13;3.35;;;17.70;99.90;;;;;;5071284;28;20020;-54
2023/04/23 05:59:09;;;;;;;3.22;2.90;;;18.10;99.90;;;;;;5053564;28;20028;-55
2023/04/23 06:01:35;;;;;;;2.90;2.70;;;18.60;99.90;;;;;;5071559;28;20040;-53
2023/04/23 06:04:01;;;;;;;2.78;2.42;;;18.90;99.90;;;;;;5071382;28;20104;-51
2023/04/23 06:06:26;;;;;;;2.60;2.28;;;19.20;99.90;;;;;;5071676;28;20099;-53
2023/04/23 06:08:52;;;;;;;3.22;2.60;;;19.70;99.90;;;;;;5070549;28;20091;-51
2023/04/23 06:11:18;;;;;;;2.67;2.47;;;20.30;99.90;;;;;;5071227;28;20028;-50
2023/04/23 06:13:43;;;;;;;2.45;2.25;;;20.70;99.90;;;;;;5071301;28;20029;-53
2023/04/23 06:16:09;;;;;;;3.17;2.22;;;21.10;99.90;;;;;;5071251;28;20081;-53
2023/04/23 06:18:36;;;;;;;2.60;1.90;;;21.60;99.90;;;;;;5071417;28;20064;-53
2023/04/23 06:21:03;;;;;;;2.65;2.15;;;21.90;99.90;;;;;;5053272;28;20021;-54
2023/04/23 06:23:29;;;;;;;2.08;1.98;;;22.20;99.90;;;;;;5071307;28;20054;-49
2023/04/23 06:25:55;;;;;;;4.90;2.60;;;22.30;99.90;;;;;;5070858;28;20443;-51
2023/04/23 06:28:20;;;;;;;2.88;2.20;;;22.60;99.90;;;;;;5071312;28;20036;-53
2023/04/23 06:30:46;;;;;;;3.17;2.08;;;23.00;99.80;;;;;;5071292;28;20086;-51
2023/04/23 06:33:12;;;;;;;1.92;1.83;;;23.30;99.80;;;;;;5071376;28;20025;-51
2023/04/23 06:35:37;;;;;;;1.90;1.80;;;23.30;98.90;;;;;;5071288;28;20480;-52
2023/04/23 06:38:03;;;;;;;3.03;2.20;;;23.20;98.50;;;;;;5071212;28;20067;-57
2023/04/23 06:40:29;;;;;;;1.95;1.85;;;23.40;99.20;;;;;;5071140;28;20081;-53
2023/04/23 06:42:54;;;;;;;2.50;1.80;;;23.30;98.20;;;;;;5070991;28;20060;-52
2023/04/23 06:45:20;;;;;;;1.75;1.60;;;23.20;98.30;;;;;;5070991;28;20025;-53
2023/04/23 06:47:48;;;;;;;1.90;1.88;;;22.90;98.60;;;;;;5071173;28;20056;-55
2023/04/23 06:50:13;;;;;;;1.75;1.65;;;22.70;98.50;;;;;;5071054;28;20024;-53
2023/04/23 06:52:39;;;;;;;7.35;2.35;;;22.80;98.80;;;;;;5071410;28;20033;-51
2023/04/23 06:55:05;;;;;;;1.80;1.70;;;22.70;98.90;;;;;;5070874;28;20025;-53
2023/04/23 06:57:31;;;;;;;4.30;1.92;;;22.90;98.70;;;;;;5070623;28;20552;-55
2023/04/23 06:59:56;;;;;;;3.33;1.77;;;23.00;98.20;;;;;;5070813;28;20029;-57
2023/04/23 07:02:22;;;;;;;3.78;2.10;;;23.10;98.70;;;;;;5070906;28;20033;-53
2023/04/23 07:04:47;;;;;;;2.13;1.77;;;22.80;98.50;;;;;;5070934;28;20064;-53
2023/04/23 07:07:13;;;;;;;5.03;2.10;;;23.00;99.10;;;;;;5063337;28;20041;-54
2023/04/23 07:09:38;;;;;;;3.78;1.83;;;23.30;97.80;;;;;;5054983;28;20048;-56
2023/04/23 07:12:04;;;;;;;1.92;1.83;;;23.40;97.80;;;;;;5066414;28;20415;-52
2023/04/23 07:14:31;;;;;;;2.03;1.92;;;23.80;97.70;;;;;;5070091;28;20025;-57
2023/04/23 07:16:58;;;;;;;2.28;1.88;;;24.00;96.10;;;;;;5064637;28;20029;-54
2023/04/23 07:19:23;;;;;;;3.25;2.10;;;23.70;96.30;;;;;;5050866;28;20395;-49
2023/04/23 07:21:49;;;;;;;2.25;1.90;;;23.90;96.20;;;;;;5064551;28;20037;-54
2023/04/23 07:24:15;;;;;;;2.03;1.83;;;24.20;96.50;;;;;;5072907;28;20044;-55
2023/04/23 07:26:41;;;;;;;2.47;1.90;;;24.20;95.40;;;;;;5071286;28;20016;-52
2023/04/23 07:29:09;;;;;;;2.00;1.90;;;24.20;95.60;;;;;;5072956;28;20459;-50
2023/04/23 07:31:35;;;;;;;1.90;1.80;;;24.20;96.10;;;;;;5074007;28;20021;-53
2023/04/23 07:34:01;;;;;;;2.03;1.63;;;24.30;95.80;;;;;;5074133;28;20104;-53
2023/04/23 07:36:26;;;;;;;2.08;1.80;;;24.70;95.40;;;;;;5073468;28;20532;-53
2023/04/23 07:38:52;;;;;;;3.45;1.60;;;24.60;95.20;;;;;;5074018;28;20095;-51
2023/04/23 07:41:17;;;;;;;2.33;2.05;;;25.10;95.40;;;;;;5072950;28;20020;-56
2023/04/23 07:43:43;;;;;;;1.67;1.58;;;24.90;93.80;;;;;;5073882;28;20048;-50
2023/04/23 07:46:08;;;;;;;2.70;2.50;;;25.00;94.30;;;;;;5073711;28;20040;-49
2023/04/23 07:48:34;;;;;;;3.47;2.03;;;25.00;94.00;;;;;;5055949;28;20020;-55
2023/04/23 07:51:00;;;;;;;3.67;1.70;;;24.30;94.50;;;;;;5074156;28;20029;-51
2023/04/23 07:53:27;;;;;;;3.03;1.90;;;24.30;94.60;;;;;;5073659;28;20035;-52
2023/04/23 07:55:56;;;;;;;2.38;2.17;;;24.10;94.90;;;;;;5056051;28;20610;-52
2023/04/23 07:58:23;;;;;;;2.50;1.80;;;23.40;95.50;;;;;;5073698;28;20036;-51
2023/04/23 08:00:49;;;;;;;2.47;2.28;;;22.40;97.30;;;;;;5072440;28;20507;-48
2023/04/23 08:03:15;;;;;;;2.30;2.10;;;21.90;98.80;;;;;;5073591;28;20479;-53
2023/04/23 08:05:40;;;;;;;3.20;2.13;;;21.80;99.40;;;;;;5073366;28;20103;-54
2023/04/23 08:08:10;;;;;;;3.38;2.17;;;21.80;99.00;;;;;;5073517;28;20534;-52
2023/04/23 08:10:36;;;;;;;2.10;2.00;;;21.70;99.30;;;;;;5073333;28;20032;-49
2023/04/23 08:13:02;;;;;;;2.28;1.95;;;22.00;99.10;;;;;;5073339;28;20031;-48
2023/04/23 08:15:28;;;;;;;4.22;2.17;;;23.50;96.10;;;;;;5072874;28;20052;-51
2023/04/23 08:17:53;;;;;;;2.63;2.13;;;23.60;96.10;;;;;;5067613;28;20096;-47
2023/04/23 08:20:19;;;;;;;1.95;1.83;;;24.20;94.60;;;;;;5053168;28;20025;-53
2023/04/23 08:22:45;;;;;;;6.75;2.20;;;23.90;94.70;;;;;;5064432;28;20041;-49
2023/04/23 08:25:11;;;;;;;2.25;1.88;;;24.00;94.70;;;;;;5072015;28;20108;-56
2023/04/23 08:27:37;;;;;;;1.85;1.70;;;24.00;94.80;;;;;;5072192;28;20435;-51
2023/04/23 08:30:03;;;;;;;3.05;1.92;;;24.30;95.00;;;;;;5072455;28;20047;-51
2023/04/23 08:32:29;;;;;;;2.90;2.17;;;24.70;94.60;;;;;;5071696;28;21657;-53
2023/04/23 08:34:54;;;;;;;2.97;2.13;;;24.40;94.60;;;;;;5072942;28;20273;-54
2023/04/23 08:37:20;;;;;;;2.53;2.33;;;23.90;94.90;;;;;;5073013;28;20024;-53
2023/04/23 08:39:46;;;;;;;3.58;2.50;;;23.50;95.90;;;;;;5072861;28;20029;-56
2023/04/23 08:42:22;;;;;;;2.25;2.00;;;23.60;95.00;;;;;;5072775;28;20055;-50
2023/04/23 08:44:50;;;;;;;2.92;2.13;;;22.80;96.20;;;;;;5072762;28;20024;-51
2023/04/23 08:47:17;;;;;;;2.38;2.20;;;22.50;96.70;;;;;;5072761;28;20029;-53
2023/04/23 08:49:45;;;;;;;2.08;1.95;;;22.10;96.60;;;;;;5072670;28;20392;-52
2023/04/23 08:52:21;;;;;;;2.20;2.10;;;21.40;97.50;;;;;;5072280;28;20025;-53
2023/04/23 08:54:50;;;;;;;2.83;2.63;;;21.30;98.30;;;;;;5072279;28;20050;-50
2023/04/23 08:57:16;;;;;;;4.28;2.30;;;21.00;98.30;;;;;;5072477;28;20012;-51
2023/04/23 08:59:43;;;;;;;2.70;2.50;;;20.60;99.20;;;;;;5072457;28;20033;-49
2023/04/23 09:02:09;;;;;;;3.38;1.83;;;20.30;99.90;;;;;;5070880;28;20048;-55
2023/04/23 09:04:36;;;;;;;2.60;2.40;;;20.10;99.90;;;;;;5071814;28;20522;-56
2023/04/23 09:07:02;;;;;;;2.90;2.47;;;20.10;99.90;;;;;;5072185;28;20028;-52
2023/04/23 09:09:28;;;;;;;7.05;2.80;;;19.70;99.90;;;;;;5072086;28;20027;-53
2023/04/23 09:11:55;;;;;;;3.15;2.33;;;19.30;99.90;;;;;;5034466;28;20028;-52
2023/04/23 09:14:24;;;;;;;4.25;2.92;;;19.10;99.90;;;;;;5034272;28;20017;-56
2023/04/23 09:16:50;;;;;;;6.38;2.90;;;18.80;99.90;;;;;;5052161;28;20017;-53
2023/04/23 09:19:17;;;;;;;4.38;3.38;;;18.50;99.90;;;;;;5060904;28;20078;-54
2023/04/23 09:21:45;;;;;;;2.70;2.50;;;18.20;99.90;;;;;;5071580;28;20051;-50
2023/04/23 09:24:11;;;;;;;4.78;3.08;;;18.00;99.90;;;;;;5071518;28;20535;-52
2023/04/23 09:26:47;;;;;;;3.40;2.60;;;17.90;99.90;;;;;;5071317;28;20040;-48
2023/04/23 09:29:18;;;;;;;3.35;2.72;;;18.30;99.90;;;;;;5070633;28;20029;-54
2023/04/23 09:31:51;;;;;;;3.55;3.00;;;18.30;99.90;;;;;;5071574;28;20107;-58
2023/04/23 09:34:23;;;;;;;2.85;2.50;;;18.30;99.90;;;;;;5069493;28;20025;-52
2023/04/23 09:36:51;;;;;;;3.03;2.78;;;18.20;99.90;;;;;;5052176;28;20025;-56
2023/04/23 09:39:18;;;;;;;4.88;2.83;;;18.10;99.90;;;;;;5051656;28;20105;-56
2023/04/23 09:41:45;;;;;;;2.80;2.58;;;17.90;99.90;;;;;;5051562;28;20175;-56
2023/04/23 09:44:13;;;;;;;3.83;2.35;;;18.00;99.90;;;;;;5051106;28;20151;-50
2023/04/23 09:46:41;;;;;;;3.67;3.30;;;18.10;99.90;;;;;;5055270;28;20361;-52
2023/04/23 09:49:09;;;;;;;8.50;2.60;;;18.10;99.90;;;;;;5052970;28;20107;-48
2023/04/23 09:51:45;;;;;;;6.95;3.40;;;18.00;99.90;;;;;;5070958;28;20028;-51
2023/04/23 09:54:17;;;;;;;3.17;2.28;;;17.90;99.90;;;;;;5051420;28;20098;-57
2023/04/23 09:56:47;;;;;;;6.60;2.75;;;17.80;99.90;;;;;;5058977;28;20020;-55
2023/04/23 09:59:22;;;;;;;3.53;3.08;;;17.80;99.90;;;;;;5071420;28;20021;-55
2023/04/23 10:01:47;;;;;;;2.50;2.30;;;18.00;99.90;;;;;;5070640;28;20028;-54
2023/04/23 10:04:21;;;;;;;3.38;2.53;;;18.10;99.90;;;;;;5052677;28;20024;-53
2023/04/23 10:06:57;;;;;;;3.83;2.80;;;18.10;99.90;;;;;;5071332;28;20016;-50
2023/04/23 10:09:24;;;;;;;6.55;2.30;;;18.10;99.90;;;;;;5071175;28;20103;-51
2023/04/23 10:11:55;;;;;;;2.70;2.50;;;18.30;99.90;;;;;;5071115;28;20546;-51
2023/04/23 10:14:22;;;;;;;2.55;2.38;;;18.30;99.90;;;;;;5071136;28;20412;-57
2023/04/23 10:16:51;;;;;;;3.22;2.40;;;18.50;99.90;;;;;;5071168;28;20028;-52
2023/04/23 10:19:21;;;;;;;3.78;1.75;;;18.60;99.90;;;;;;5070430;28;20032;-52
2023/04/23 10:21:51;;;;;;;2.60;2.40;;;18.60;99.90;;;;;;5071336;28;20035;-51
2023/04/23 10:24:20;;;;;;;2.63;2.30;;;18.80;99.90;;;;;;5070527;28;20456;-51
2023/04/23 10:26:46;;;;;;;3.20;2.13;;;18.90;99.90;;;;;;5071009;28;20023;-51
2023/04/23 10:29:15;;;;;;;4.38;2.53;;;18.70;99.90;;;;;;5052170;28;20029;-52
2023/04/23 10:31:41;;;;;;;2.85;2.22;;;18.80;99.90;;;;;;5070507;28;20021;-55
2023/04/23 10:34:11;;;;;;;2.20;2.10;;;18.80;99.90;;;;;;5070768;28;20411;-54
2023/04/23 10:36:37;;;;;;;2.97;2.17;;;18.80;99.90;;;;;;5069954;28;20464;-53
2023/04/23 10:39:06;;;;;;;2.13;1.92;;;18.50;99.90;;;;;;5070803;28;20048;-55
2023/04/23 10:41:38;;;;;;;5.30;4.80;;;18.30;99.90;;;;;;5070834;28;20384;-58
2023/04/23 10:44:12;;;;;;;15.65;10.23;;;18.30;99.90;;;;;;5041602;28;20032;-56
2023/04/23 10:46:37;;;;;;;2.78;2.45;;;18.30;99.90;;;;;;5051167;28;20032;-53
2023/04/23 10:49:09;;;;;;;2.78;2.45;;;18.30;99.90;;;;;;5051256;28;20029;-56
2023/04/23 10:51:36;;;;;;;4.57;2.67;;;18.10;99.90;;;;;;5036794;28;20029;-48
2023/04/23 10:54:03;;;;;;;4.70;2.60;;;18.00;99.90;;;;;;5052971;28;20120;-47
2023/04/23 10:56:29;;;;;;;2.63;2.40;;;17.70;99.90;;;;;;5059666;28;20377;-53
2023/04/23 10:58:54;;;;;;;3.17;2.10;;;17.60;99.90;;;;;;5064862;28;20058;-47
2023/04/23 11:01:24;;;;;;;3.40;2.40;;;17.50;99.90;;;;;;5061260;28;20048;-48
2023/04/23 11:03:50;;;;;;;3.42;2.70;;;17.30;99.90;;;;;;5058086;28;20017;-51
2023/04/23 11:06:59;;;;;;;4.00;2.58;;;17.30;99.90;;;;;;5072100;28;20482;-52
2023/04/23 11:09:41;;;;;;;3.92;2.28;;;17.50;99.90;;;;;;5061999;28;20063;-48
2023/04/23 11:12:19;;;;;;;5.28;2.33;;;17.80;99.90;;;;;;5073236;28;20024;-48
2023/04/23 11:14:49;;;;;;;4.55;2.55;;;18.00;99.90;;;;;;5073734;28;20025;-48
2023/04/23 11:17:22;;;;;;;2.53;2.33;;;18.10;99.90;;;;;;5074832;28;20020;-51
2023/04/23 11:20:09;;;;;;;4.43;2.40;;;18.10;99.90;;;;;;5073551;28;20400;-53
2023/04/23 11:22:35;;;;;;;2.90;2.47;;;18.20;99.90;;;;;;5073855;28;20086;-53
2023/04/23 11:25:02;;;;;;;4.22;2.45;;;18.10;99.90;;;;;;5073180;28;20048;-55
2023/04/23 11:27:29;;;;;;;2.22;2.03;;;17.90;99.90;;;;;;5072941;28;20503;-47
2023/04/23 11:29:56;;;;;;;2.55;2.28;;;18.20;99.90;;;;;;5073620;28;20028;-48
2023/04/23 11:32:22;;;;;;;3.10;2.40;;;18.40;99.90;;;;;;5073895;28;20082;-52
2023/04/23 11:34:49;;;;;;;6.18;2.30;;;18.60;99.90;;;;;;5073870;28;20025;-51
2023/04/23 11:37:17;;;;;;;13.10;2.67;;;18.70;99.90;;;;;;5074180;28;20104;-51
2023/04/23 11:39:44;;;;;;;2.72;2.05;;;18.80;99.90;;;;;;5072540;28;20494;-49
2023/04/23 11:42:14;;;;;;;2.50;2.30;;;18.80;99.90;;;;;;5094214;22;20587;-48
2023/04/23 11:44:40;;;;;;;5.40;2.40;;;18.90;99.90;;;;;;5072967;28;20395;-47
2023/04/23 11:47:07;;;;;;;3.28;2.20;;;18.90;99.90;;;;;;5056288;28;20056;-50
2023/04/23 11:49:32;;;;;;;6.25;4.85;;;19.00;99.90;;;;;;5073924;28;20024;-51
2023/04/23 11:52:00;;;;;;;6.05;2.90;;;19.10;99.90;;;;;;5056508;28;20031;-47
2023/04/23 11:54:28;;;;;;;2.65;2.17;;;19.10;99.90;;;;;;5073426;28;20016;-47
2023/04/23 11:56:54;;;;;;;4.28;2.20;;;19.10;99.90;;;;;;5074266;28;20059;-49
2023/04/23 11:59:20;;;;;;;2.72;2.08;;;19.00;99.90;;;;;;5073958;28;20031;-51
2023/04/23 12:01:54;;;;;;;2.75;2.20;;;18.70;99.90;;;;;;5073940;28;20496;-52
2023/04/23 12:04:21;;;;;;;3.42;2.20;;;18.60;99.90;;;;;;5073297;28;20021;-51
2023/04/23 12:06:48;;;;;;;3.03;2.45;;;18.50;99.90;;;;;;5073673;28;20400;-50
2023/04/23 12:09:15;;;;;;;3.22;2.20;;;18.50;99.90;;;;;;5073686;28;20163;-52
2023/04/23 12:11:43;;;;;;;5.50;2.67;;;18.50;99.90;;;;;;5073539;28;20069;-49
2023/04/23 12:14:10;;;;;;;2.97;2.17;;;18.60;99.90;;;;;;5073667;28;20107;-49
2023/04/23 12:16:42;;;;;;;2.00;1.90;;;18.60;99.90;;;;;;5073385;28;20030;-47
2023/04/23 12:19:19;;;;;;;2.92;2.30;;;18.70;99.90;;;;;;5073186;28;20021;-48
2023/04/23 12:21:55;;;;;;;1.70;1.60;;;18.80;99.90;;;;;;5073296;28;20052;-52
2023/04/23 12:24:22;;;;;;;3.75;1.60;;;18.80;99.90;;;;;;5073050;28;20387;-51
2023/04/23 12:26:57;;;;;;;2.15;1.80;;;18.70;99.90;;;;;;5073066;28;20023;-53
2023/04/23 12:29:24;;;;;;;1.83;1.58;;;18.60;99.90;;;;;;5072785;28;20097;-50
2023/04/23 12:31:53;;;;;;;2.17;1.60;;;18.60;99.90;;;;;;5072900;28;20025;-50
2023/04/23 12:34:20;;;;;;;1.48;1.38;;;18.70;99.90;;;;;;5072870;28;20067;-50
2023/04/23 12:36:51;;;;;;;2.20;1.60;;;18.80;99.40;;;;;;5072941;28;20449;-51
2023/04/23 12:39:28;;;;;;;1.40;1.30;;;18.80;98.30;;;;;;5072494;28;20104;-52
2023/04/23 12:42:03;;;;;;;3.45;1.40;;;18.80;98.10;;;;;;5072464;28;20028;-53
2023/04/23 12:44:30;;;;;;;2.03;1.60;;;18.80;97.70;;;;;;5072147;28;20506;-47